createdAt,value
2023-02-21T00:01:48.806Z,101899.75
2023-02-21T00:11:50.093Z,101914.47
2023-02-21T00:21:51.360Z,101910.03
2023-02-21T00:31:52.615Z,101911.72
2023-02-21T00:41:53.881Z,101902.13
2023-02-21T00:51:55.205Z,101899.53
2023-02-21T01:01:56.488Z,101887.19
2023-02-21T01:11:57.737Z,101881.06
2023-02-21T01:21:59.009Z,101880.06
2023-02-21T01:32:00.398Z,101868.75
2023-02-21T01:42:04.801Z,101864.34
2023-02-21T01:52:06.104Z,101863.34
2023-02-21T02:02:07.336Z,101860.72
2023-02-21T02:12:08.594Z,101845.88
2023-02-21T02:22:09.897Z,101839.66
2023-02-21T02:32:11.179Z,101837.84
2023-02-21T02:42:12.460Z,101826.41
2023-02-21T02:52:13.746Z,101812.44
2023-02-21T03:02:15.014Z,101807.09
2023-02-21T03:12:16.312Z,101810.59
2023-02-21T03:22:17.566Z,101813.38
2023-02-21T03:32:18.876Z,101808.84
2023-02-21T03:42:20.223Z,101809.72
2023-02-21T03:52:21.482Z,101808.75
2023-02-21T04:02:22.790Z,101812.28
2023-02-21T04:12:24.057Z,101814.84
2023-02-21T04:22:25.313Z,101796.66
2023-02-21T04:32:26.673Z,101794.91
2023-02-21T04:42:27.937Z,101794.00
2023-02-21T04:52:29.196Z,101787.84
2023-02-21T05:02:30.447Z,101778.25
2023-02-21T05:12:31.677Z,101780.81
2023-02-21T05:22:32.937Z,101787.88
2023-02-21T05:32:34.192Z,101793.00
2023-02-21T05:42:35.466Z,101798.13
2023-02-21T05:52:36.684Z,101793.78
2023-02-21T06:02:37.948Z,101793.72
2023-02-21T06:12:39.192Z,101788.34
2023-02-21T06:22:40.529Z,101792.88
2023-02-21T06:32:41.806Z,101794.47
2023-02-21T06:42:43.353Z,101798.75
2023-02-21T06:52:44.592Z,101810.31
2023-02-21T07:02:46.129Z,101804.88
2023-02-21T07:12:47.482Z,101808.53
2023-02-21T07:22:48.833Z,101805.03
2023-02-21T07:32:50.193Z,101799.91
2023-02-21T07:42:51.591Z,101804.06
2023-02-21T07:52:52.945Z,101810.16
2023-02-21T08:02:54.498Z,101809.38
2023-02-21T08:12:55.768Z,101819.00
2023-02-21T08:22:57.282Z,101805.97
2023-02-21T08:32:58.659Z,101807.53
2023-02-21T08:43:04.401Z,101808.53
2023-02-21T08:53:14.931Z,101811.03
2023-02-21T09:03:19.671Z,101796.41
2023-02-21T09:13:27.551Z,101790.94
2023-02-21T09:33:57.590Z,101785.84
2023-02-21T09:43:58.830Z,101777.16
2023-02-21T09:54:00.281Z,101772.59
2023-02-21T10:04:08.550Z,101787.59
2023-02-21T10:14:16.536Z,101788.59
2023-02-21T10:34:47.406Z,101790.28
2023-02-21T10:44:48.738Z,101788.66
2023-02-21T10:54:51.371Z,101788.78
2023-02-21T11:05:09.062Z,101778.56
2023-02-21T11:15:10.326Z,101768.16
2023-02-21T11:25:19.905Z,101757.75
2023-02-21T11:35:26.642Z,101750.53
2023-02-21T11:45:36.476Z,101746.16
2023-02-21T11:55:41.889Z,101731.19
2023-02-21T12:05:50.509Z,101723.22
2023-02-21T12:15:58.500Z,101711.59
2023-02-21T12:26:07.650Z,101711.94
2023-02-21T12:36:16.959Z,101704.91
2023-02-21T12:46:24.535Z,101685.47
2023-02-21T12:56:32.472Z,101687.19
2023-02-21T13:06:40.506Z,101687.44
2023-02-21T13:27:05.141Z,101663.91
2023-02-21T13:37:06.746Z,101655.28
2023-02-21T13:47:14.532Z,101634.31
2023-02-21T13:57:22.548Z,101646.44
2023-02-21T14:07:30.505Z,101648.13
2023-02-21T14:17:38.579Z,101636.06
2023-02-21T14:27:46.518Z,101624.88
2023-02-21T14:37:54.508Z,101618.94
2023-02-21T14:48:03.768Z,101606.72
2023-02-21T14:58:22.756Z,101605.69
2023-02-21T15:08:24.297Z,101602.56
2023-02-21T15:18:28.489Z,101603.00
2023-02-21T15:28:35.057Z,101602.56
2023-02-21T15:38:44.536Z,101586.94
2023-02-21T15:48:52.546Z,101595.00
2023-02-21T15:59:00.528Z,101585.63
2023-02-21T16:09:08.512Z,101582.81
2023-02-21T16:19:10.151Z,101588.69
2023-02-21T16:29:11.460Z,101578.28
2023-02-21T16:39:12.718Z,101582.97
2023-02-21T16:49:14.191Z,101572.44
2023-02-21T16:59:15.508Z,101567.88
2023-02-21T17:09:16.890Z,101569.88
2023-02-21T17:19:25.517Z,101574.56
2023-02-21T17:29:26.956Z,101579.75
2023-02-21T17:39:28.236Z,101578.13
2023-02-21T17:49:29.771Z,101578.00
2023-02-21T17:59:31.174Z,101567.50
2023-02-21T18:09:32.631Z,101577.38
2023-02-21T18:19:34.039Z,101574.69
2023-02-21T18:29:35.257Z,101564.22
2023-02-21T18:39:36.553Z,101559.09
2023-02-21T18:49:38.132Z,101545.50
2023-02-21T18:59:39.653Z,101550.84
2023-02-21T19:09:41.246Z,101530.00
2023-02-21T19:19:42.769Z,101528.47
2023-02-21T19:29:44.193Z,101512.69
2023-02-21T19:39:45.836Z,101510.69
2023-02-21T19:49:47.395Z,101502.16
2023-02-21T19:59:48.692Z,101494.22
2023-02-21T20:09:50.339Z,101492.53
2023-02-21T20:19:51.718Z,101498.66
2023-02-21T20:29:54.235Z,101506.63
2023-02-21T20:39:56.142Z,101500.50
2023-02-21T20:49:57.606Z,101482.13
2023-02-21T20:59:59.097Z,101481.19
2023-02-21T21:10:00.386Z,101476.75
2023-02-21T21:20:01.823Z,101468.19
2023-02-21T21:30:03.258Z,101465.03
2023-02-21T21:40:04.572Z,101448.22
2023-02-21T21:50:05.862Z,101442.09
2023-02-21T22:00:07.251Z,101423.03
2023-02-21T22:10:08.538Z,101409.94
2023-02-21T22:20:09.928Z,101394.25
2023-02-21T22:30:11.486Z,101379.75
2023-02-21T22:40:12.941Z,101385.56
2023-02-21T22:50:14.351Z,101368.56
2023-02-21T23:00:15.719Z,101348.16
2023-02-21T23:10:17.121Z,101340.22
2023-02-21T23:20:18.391Z,101326.41
2023-02-21T23:30:19.637Z,101318.22
2023-02-21T23:40:20.917Z,101323.50
2023-02-21T23:50:22.152Z,101323.41
